G.commander — DSQR5 — position and weather

sailwx.info

Track history (hours):
 
Tides and Currents Weather Stations Pressure Air Temp Water Temp Dewpoint Dewpoint Depression Visibility Wind Speed Wind Dir Waves Ship Positions

G.commander

Last reported at 2015-Mar-30 13:22 UTC. Time now 2015-Apr-01 22:35 UTC.
Position N 01°52' E 102°25'.

Length 230 m; draft 8.5 m.

Type: Tanker. MMSI: 441681000.

Date/timePositionNaut miles runAvg speedWind from/ knotsBaromVisibWave heightAir tempDewpointWater temp
2015-Mar-30 13:22N 01°52' E 102°25'1815.0
2015-Mar-30 12:11N 01°44' E 102°41'6914.5
2015-Mar-30 07:25N 01°10' E 103°41'5 4.1
2015-Mar-30 06:05N 01°09' E 103°46'3 5.0
2015-Mar-30 05:33N 01°11' E 103°49'1413.7
2015-Mar-30 04:33N 01°16' E 104°01'1211.5
2015-Mar-30 03:29N 01°10' E 104°13'11 0.2
2015-Mar-28 02:33N 01°14' E 104°02'1514.6
2015-Mar-28 01:33N 01°10' E 103°48'8512.2
2015-Mar-27 18:33N 01°46' E 102°32'1514.0
2015-Mar-27 17:29N 01°52' E 102°18'  
Track history (hours):
 
Tides and Currents Weather Stations Pressure Air Temp Water Temp Dewpoint Dewpoint Depression Visibility Wind Speed Wind Dir Waves Ship Positions

G.commander

Last reported at 2015-Mar-30 13:22 UTC. Time now 2015-Apr-01 22:35 UTC.
Position N 01°52' E 102°25'.

Length 230 m; draft 8.5 m.

Type: Tanker. MMSI: 441681000.

Date/timePositionNaut miles runAvg speedWind from/ knotsBaromVisibWave heightAir tempDewpointWater temp
2015-Mar-30 13:22N 01°52' E 102°25'1815.0
2015-Mar-30 12:11N 01°44' E 102°41'6914.5
2015-Mar-30 07:25N 01°10' E 103°41'5 4.1
2015-Mar-30 06:05N 01°09' E 103°46'3 5.0
2015-Mar-30 05:33N 01°11' E 103°49'1413.7
2015-Mar-30 04:33N 01°16' E 104°01'1211.5
2015-Mar-30 03:29N 01°10' E 104°13'11 0.2
2015-Mar-28 02:33N 01°14' E 104°02'1514.6
2015-Mar-28 01:33N 01°10' E 103°48'8512.2
2015-Mar-27 18:33N 01°46' E 102°32'1514.0
2015-Mar-27 17:29N 01°52' E 102°18'  

Dump ship's entire track history